Airfield :
LOGIN :

Register | Disclaimer

   EN    FR    IT 

 










Legend :    VFR   Marginal VFR   IFR   Intensive IFR   Very Intensive IFR
Visi :
Ceiling :
>= 8 km
>= 3000ft
5 to 8 km
1000 to 3000 ft
1500m to 5 km
500 to 1000 ft
800 to 1500m
200 to 500 ft
< 800m
< 200 ft
Symbols :   Thunderstorms  Fog  Heavy snow  Heavy precipitations  Wind > 20 kt
SIGMETs :     Misc.  Thunderstorms  Icing  Turbulence  Mountain Waves  Volcanic Ashes






- Airport Elevation : 200 ft


EBBL - Klein Brogel AB

CURRENT METAR :
  • 261425Z AUTO 23003KT 9999 FEW045/// SCT120/// 21/17 Q1012 BLU

EXPIRED METARs :
  • 261355Z AUTO 25010G21KT 9999 -RA BKN046/// BKN110/// 16/14 Q1012 BLU
  • 261350Z AUTO 20003KT 2700 +RA BKN052/// BKN110/// 19/14 Q1012 YLO
  • 261325Z AUTO 12004KT 9999 FEW061/// BKN090/// BKN130/// 21/12 Q1012 BLU
  • 261315Z AUTO 12003KT 1300 DZ FEW061/// BKN084/// 21/14 Q1013 AMB
  • 261255Z AUTO VRB02KT 9999 BKN085/// 21/15 Q1013 BLU
  • 261233Z AUTO 10004KT 1200 -DZ FEW051/// BKN092/// 20/14 Q1013 AMB
  • 261225Z AUTO 11004KT 2700 -DZ FEW051/// OVC095/// 20/15 Q1013 YLO
  • 261219Z AUTO 11003KT 7000 OVC098/// 20/15 Q1013 WHT
  • 261155Z AUTO 09003KT 9999 OVC100/// 20/15 Q1014 BLU
  • 261125Z AUTO 09005KT 9999 OVC100/// 20/14 Q1014 BLU
  • 261055Z AUTO 10004KT 9999 OVC100/// 20/15 Q1014 BLU
  • 261025Z AUTO 09003KT 9999 BKN060/// 19/13 Q1014 BLU
  • 260955Z AUTO 13003KT 9999 OVC078/// 20/13 Q1014 BLU

TAF TAF EBBL
Valid from the 26 at 13:00 until the 26 at 22:00 UTC


261141Z 2613/2622 15006KT 9999 FEW030 SCT100
BECMG 2613/2614 19010KT
TEMPO 2613/2619 20010G20KT 6000 -SHRA SCT040TCU
PROB40
TEMPO 2613/2618 20012G22KT 4000 SHRA BKN030TCU
PROB30
TEMPO 2613/2617 VRB15G25KT 1000 TSRA BKN015CB



MET'MAP, your aeronautical weather chart ! - Copyright ORBIFLY December 2007 - Disclaimer

ORBIFLY MET'MAP TEAM :

Programming & Development : Alexandra Zaïnal
Original concept : Baudouin d'Aumeries
Technical & hardware support : Manuel Goepfert
Assistance : Marc-Olivier Méhu




SOURCES & CREDITS :

   NOAA